AirNav   Pilot Hours Calculator
 
 814 users online  

2MU0 St Genevieve County Memorial Hospital Heliport
St Genevieve, Missouri, USA

GOING TO ST GENEVIEVE?


FAA INFORMATION EFFECTIVE 26 MARCH 2020

Location

FAA Identifier: 2MU0
Lat/Long: 37-58-06.6900N 090-03-15.9060W
37-58.111500N 090-03.265100W
37.9685250,-90.0544183
(estimated)
Elevation: 424 ft. / 129 m (estimated)
Variation: 01E (1995)
Time zone: UTC -5 (UTC -6 during Standard Time)
Zip code: 63670

Heliport Operations

Heliport use: Private use, MEDICAL USE.
Activation date: 08/1997
Control tower: no
ARTCC: KANSAS CITY CENTER
FSS: COLUMBIA FLIGHT SERVICE STATION
Attendance: UNATNDD
Wind indicator: yes
Segmented circle: yes
Lights: FOR PERIMETER LGTS CALL 573-883-2751.

Heliport Communications

WX AWOS-3PT at PCD (11 nm SE): 118.95 (573-543-5390)
WX AWOS-3 at SAR (20 nm NE): 118.375 (618-443-3296)

Nearby radio navigation aids

VOR radial/distance  VOR name  Freq  Var
FAMr025/19.6FARMINGTON VORTAC115.7001E

Heliport Services

Runway Information

Helipad H1

Dimensions: 45 x 41 ft. / 14 x 12 m
Surface: concrete
Runway edge lights: PERI
Latitude: 37-58.111500N
Longitude: 090-03.265100W
Elevation: 424.0 ft.
Traffic pattern: leftleft

Heliport Ownership and Management from official FAA records

Ownership: Privately-owned
Owner: ST GENEVIEVE COUNTY MEM HOS
HWY 61 & 32
ST GENEVIEVE, MO 63670
Phone 573-883-2751
Manager: ST GENEVIEVE COUNTY MEM HOS
HWY 61 & 32, ATTN: KEVIN SCHWEISS
ST GENEVIEVE, MO 63670
Phone 573-883-2751
ADDITIONAL CONTACT: LAURA BAILEY, 573-883-4429, LBAILEY@SGCMH.ORG

Additional Remarks

FOR CD CTC KANSAS CITY ARTCC AT 913-254-8508.

Instrument Procedures

There are no published instrument procedures at 2MU0.

Some nearby airports with instrument procedures:

KPCD - Perryville Regional Airport (11 nm SE)
KSAR - Sparta Community Airport-Hunter Field (20 nm NE)
KFES - Festus Memorial Airport (21 nm NW)
KFAM - Farmington Regional Airport (22 nm SW)
H88 - A Paul Vance Fredericktown Regional Airport (24 nm SW)
 
Loc | Ops | Rwys | IFR | FBO | Links
Com | Nav | Svcs | Stats | Notes

Kansas City Aviation Department
 
Area around 2MU0 (St Genevieve County Memorial Hospital Heliport)
 
Road maps at: MapQuest Bing Google
 
Aerial photo
No photo
 
Sectional chart

 
Airport distance calculator
Flying to St Genevieve County Memorial Hospital Heliport? Find the distance to fly.

From to 2MU0

Sunrise and sunset
Times for 03-Apr-2020
 Local
(UTC-5)
 Zulu
(UTC)
Morning civil twilight06:1511:15
Sunrise06:4211:42
Sunset19:2500:25
Evening civil twilight19:5100:51

Current date and time
Zulu (UTC)  04-Apr-2020 00:16:48
Local (UTC-5)  03-Apr-2020 19:16:48
 
METAR
KPCD 
11nm SE 
032355Z AUTO 24011KT 200V260 10SM OVC065 18/10 A2999 RMK AO2 T01770100 10216 20177
KSAR 
20nm NE 
040001Z AUTO 17007KT 10SM BKN080 OVC120 18/11 A3001 RMK AO2
KFAM 
21nm SW 
032356Z AUTO 19005KT 10SM OVC048 17/10 A3001 RMK AO2 SLP170 T01670100 10206 20167 53003
TAF
KBLV 
35nm N 
031719Z 0317/0422 VRB06KT 9999 SCT060 QNH2996INS BECMG 0323/0324 VRB06KT 9999 BKN020 QNH2997INS BECMG 0402/0404 29009KT 8000 BR BKN010 QNH3002INS BECMG 0409/0410 32012KT 9000 -SHRA OVC007 QNH3012INS BECMG 0417/0418 VRB06KT 9000 -DZ BKN015 QNH3007INS TX23/0320Z TN03/0411Z
KCPS 
36nm N 
031737Z 0318/0418 23007KT P6SM OVC070 FM032200 24005KT P6SM VCSH OVC045 FM040100 VRB04KT P6SM VCSH OVC025 FM040300 32009KT P6SM VCSH OVC015 FM040800 34009KT P6SM -SHRA OVC007 FM041500 34008KT P6SM OVC007
NOTAMs
Click for the latest NOTAMs
NOTAMs are issued by the DoD/FAA and will open in a separate window not controlled by AirNav.

 

 
 

Would you like to see your business listed on this page?

 If your business provides an interesting product or service to pilots, flight crews, aircraft, or users of the St Genevieve County Memorial Hospital Heliport, you should consider listing it here.  To start the listing process, click on the button below
 
Add a business
 

Other Pages about St Genevieve County Memorial Hospital Heliport

Update a link
 
Copyright © AirNav, LLC. All rights reserved. Privacy Policy  Contact